Lake Charles, LA (70601)

7:34 PM CST on December 09, 2016 (GMT -0600)
LCB Academy | | Change Station
Active Advisory: Freeze Warning

Elev 33 ft 30.22 °N, 93.20 °W | Updated 14 minutes ago

Partly Cloudy
Partly Cloudy
45.3 °F
Feels Like 45 °F
N
0.0
Wind Variable Wind from ENE
Gusts 0.0 mph

Today
High -- | Low -- °F
--% Chance of Precip.
Yesterday
High -- | Low -- °F
Precip. -- in
Pressure 30.51 in
Visibility 10.0 miles
Clouds Clear
Windchill 45 °F
Dew Point 33 °F
Humidity 61%
Rainfall 0.00 in
Snow Depth Not available.
6:58 AM 5:12 PM
Waxing Gibbous, 79% visible
METAR KCWF 100055Z 03004KT 10SM SKC 04/M02 A3051
Pressure 30.51 in
Visibility 10.0 miles
Clouds Clear
Windchill 45 °F
Dew Point 33 °F
Humidity 61%
Rainfall 0.00 in
Snow Depth Not available.
6:58 AM 5:12 PM
Waxing Gibbous, 79% visible
METAR KCWF 100055Z 03004KT 10SM SKC 04/M02 A3051

10-Day Weather Forecast

Almanac

Astronomy

Dec. 09, 2016 Rise Set
Actual Time
Civil Twilight
Nautical Twilight
Astronomical Twilight
Moon
Length of Visible Light
Length of Day
Tomorrow will be .
, % of the Moon is Illuminated

Today's Extremes

State Highs State Lows

Community

WunderPhotos

Upload Photos

1,956,534 photos uploaded!

WunderBlog® & News

Nearby

Air Quality

  Air Quality AQ Index Pollutant
Not available.

Snow Depth

Station Depth Elevation

Earthquake Activity

City Distance Mag. Time & Date
Minimum magnitude displayed is 2.5.

Coastal Water Temperatures

Place Temperature

Stations

Nearby Weather Stations

Station Location Temp. Windchill Dew Point Humidity Wind Precip. Elev Updated Type
                   

Watches & Warnings

Freeze Warning
Issued: 3:48 PM CST Dec. 9, 2016 – National Weather Service

... Freeze warning in effect from 9 PM this evening to 9 am CST
Saturday...

The National Weather Service in Lake Charles has issued a freeze
warning... which is in effect from 9 PM this evening to 9 am CST
Saturday.

* Temperature... prolonged period of 25 to 30 degrees across
interior East Texas and central Louisiana generally along and
north of the Highway 190 corridor. Shorter duration 30 to 32
along the I-10 corridor.

* Impacts... freezing temperatures will kill crops and sensitive
vegetation left outdoors. Pets should be brought inside or
provided a climate controlled shelter.

Precautionary/preparedness actions...

A freeze warning means sub-freezing temperatures are imminent or
highly likely. These conditions will kill crops and other
sensitive vegetation.



13